Flight Track Log - Related Links

Times and Time Zones

All times are in EDT time to prevent confusion due to time zone crossing. See the XOJ550 flight status page for this flight to view local times or setup timezone preferences in your user account.

Time Position Orientation Groundspeed Altitude Reporting Facility
EDT Latitude Longitude Course Direction KTS MPH feet Rate Location/Type
Fri 10:50:54 AM 44.4264 -73.3558 238° Southwest 291 335 9,900  Level Boston Center
Fri 10:51:54 AM 44.3756 -73.4742 239° Southwest 331 381 10,000 100 Climbing Boston Center
Fri 10:52:54 AM 44.3222 -73.5978 239° Southwest 368 423 10,100 2,000 Climbing Boston Center
Fri 10:53:54 AM 44.2708 -73.7186 239° Southwest 368 423 14,000 3,950 Climbing Boston Center
Fri 10:54:54 AM 44.2172 -73.8419 239° Southwest 373 429 18,000 3,850 Climbing Boston Center
Fri 10:55:00 AM 44.1481 -73.9199 240° Southwest  Level FlightAware Approximate
Fri 10:55:54 AM 44.1678 -73.9625 240° Southwest 368 423 21,700  Level Boston Center
Fri 10:56:54 AM 44.1186 -74.0711 238° Southwest 368 423 24,900 3,000 Climbing Boston Center
Fri 10:57:54 AM 44.0667 -74.1939 240° Southwest 368 423 27,700 2,800 Climbing Boston Center
Fri 10:58:54 AM 44.0128 -74.3136 238° Southwest 373 429 30,500 2,500 Climbing Boston Center
Fri 10:59:54 AM 43.9583 -74.4417 239° Southwest 373 429 32,700 2,250 Climbing Boston Center
Fri 11:00:54 AM 43.9042 -74.5667 239° Southwest 378 435 35,000 2,100 Climbing Boston Center
Fri 11:01:54 AM 43.8475 -74.6914 238° Southwest 378 435 36,900 1,850 Climbing Boston Center
Fri 11:02:54 AM 43.7928 -74.8158 239° Southwest 384 442 38,700 1,250 Climbing Boston Center
Fri 11:03:54 AM 43.7381 -74.9403 239° Southwest 384 442 39,400 850 Climbing Boston Center
Fri 11:04:54 AM 43.6789 -75.0697 238° Southwest 384 442 40,400 1,000 Climbing Boston Center
Fri 11:05:54 AM 43.6239 -75.1964 239° Southwest 384 442 41,400 900 Climbing Boston Center
Fri 11:06:54 AM 43.5642 -75.3342 239° Southwest 403 464 42,200 800 Climbing Boston Center
Fri 11:07:54 AM 43.5042 -75.4744 240° Southwest 415 478 43,000 400 Climbing Boston Center
Fri 11:08:54 AM 43.4381 -75.6114 236° Southwest 425 489 43,000  Level Boston Center
Fri 11:09:54 AM 43.3647 -75.7675 237° Southwest 433 498 43,000  Level Boston Center
Fri 11:10:54 AM 43.3000 -75.9125 239° Southwest 438 504 43,000  Level Boston Center
Fri 11:11:54 AM 43.2353 -76.0514 237° Southwest 443 510 43,000  Level Boston Center
Fri 11:12:54 AM 43.1642 -76.1867 234° Southwest 443 510 43,000  Level Boston Center
Fri 11:14:36 AM 43.0033 -76.3356 214° Southwest 434 499 43,000  Level Cleveland Center
Fri 11:15:36 AM 42.9003 -76.4250 212° Southwest 439 505 43,000  Level Cleveland Center
Fri 11:16:36 AM 42.8081 -76.5272 219° Southwest 439 505 43,000  Level Cleveland Center
Fri 11:17:36 AM 42.7442 -76.6700 239° Southwest 430 495 43,000  Level Cleveland Center
Fri 11:18:36 AM 42.6861 -76.8092 240° Southwest 439 505 43,000  Level Cleveland Center
Fri 11:19:36 AM 42.6283 -76.9539 242° Southwest 439 505 43,000  Level Cleveland Center
Fri 11:20:36 AM 42.5703 -77.1011 242° Southwest 439 505 43,000  Level Cleveland Center
Fri 11:21:36 AM 42.5119 -77.2422 241° Southwest 444 511 43,000  Level Cleveland Center
Fri 11:22:36 AM 42.4533 -77.3861 241° Southwest 444 511 43,000  Level Cleveland Center
Fri 11:23:36 AM 42.3928 -77.5300 240° Southwest 449 517 43,000  Level Cleveland Center
Fri 11:24:36 AM 42.3361 -77.6758 242° Southwest 449 517 43,000  Level Cleveland Center
Fri 11:25:36 AM 42.2769 -77.8217 241° Southwest 449 517 43,000  Level Cleveland Center
Fri 11:26:36 AM 42.2181 -77.9672 241° Southwest 449 517 43,000  Level Cleveland Center
Fri 11:27:36 AM 42.1586 -78.1125 241° Southwest 449 517 43,000  Level Cleveland Center
Fri 11:28:36 AM 42.0908 -78.2692 240° Southwest 449 517 43,000  Level Cleveland Center
Fri 11:29:36 AM 42.0292 -78.4139 240° Southwest 449 517 43,000  Level Cleveland Center
Fri 11:30:36 AM 41.9714 -78.5611 242° Southwest 449 517 43,000 -700 Level Cleveland Center
Fri 11:31:36 AM 41.9072 -78.7056 239° Southwest 454 522 41,600 -1,450 Descending Cleveland Center
Fri 11:32:36 AM 41.8467 -78.8439 240° Southwest 449 517 40,100 -1,500 Descending Cleveland Center
Fri 11:33:36 AM 41.8006 -78.9619 242° Southwest 429 494 38,600 -1,450 Descending Cleveland Center
Fri 11:34:36 AM 41.7481 -79.0858 240° Southwest 403 464 37,200 -1,450 Descending Cleveland Center
Fri 11:35:36 AM 41.6933 -79.2122 240° Southwest 392 451 35,700 -1,550 Descending Cleveland Center
Fri 11:36:36 AM 41.6364 -79.3439 240° Southwest 398 458 34,100 -1,350 Descending Cleveland Center
Fri 11:37:36 AM 41.5753 -79.4839 240° Southwest 417 480 33,000 -550 Descending Cleveland Center
Fri 11:38:36 AM 41.5161 -79.6181 240° Southwest 424 488 33,000 -500 Level Cleveland Center
Fri 11:39:36 AM 41.4547 -79.7575 240° Southwest 429 494 32,000 -650 Descending Cleveland Center
Fri 11:40:36 AM 41.3931 -79.8939 239° Southwest 429 494 31,700 -950 Descending Cleveland Center
Fri 11:41:36 AM 41.3272 -80.0439 240° Southwest 429 494 30,100 -1,050 Descending Cleveland Center
Fri 11:42:36 AM 41.2672 -80.1825 240° Southwest 429 494 29,600 -750 Descending Cleveland Center
Fri 11:43:36 AM 41.2050 -80.3181 239° Southwest 429 494 28,600 -800 Descending Cleveland Center
Fri 11:44:36 AM 41.1469 -80.4453 239° Southwest 437 503 28,000 -300 Descending Cleveland Center
Fri 11:45:36 AM 41.0761 -80.5969 238° Southwest 444 511 28,000  Level Cleveland Center
Fri 11:46:36 AM 41.0136 -80.7428 240° Southwest 457 526 28,000  Level Cleveland Center
Fri 11:47:36 AM 40.9486 -80.8856 239° Southwest 457 526 28,000 -500 Level Cleveland Center
Fri 11:48:36 AM 40.8856 -81.0281 240° Southwest 457 526 27,000 -1,150 Descending Cleveland Center
Fri 11:49:36 AM 40.8681 -81.1981 262° West 452 520 25,700 -1,700 Descending Cleveland Center
Fri 11:50:36 AM 40.8586 -81.3656 266° West 466 536 23,600 -2,250 Descending Cleveland Center
Fri 11:51:36 AM 40.8472 -81.5219 265° West 453 521 21,200 -2,600 Descending Cleveland Center
Fri 11:52:36 AM 40.8042 -81.6639 248° West 417 480 18,400 -2,500 Descending Cleveland Center
Fri 11:53:36 AM 40.7303 -81.7642 226° Southwest 389 448 16,200 -1,561 Descending Cleveland Center
Fri 11:55:29 AM 40.6031 -81.9400 226° Southwest 390 449 13,900 -793 Descending Indianapolis Center
Fri 11:56:30 AM 40.5158 -82.0661 228° Southwest 395 455 13,900 -286 Level Indianapolis Center
Fri 11:57:14 AM 40.4667 -82.1408 229° Southwest 396 456 13,400 -1,355 Descending Indianapolis Center
Fri 11:58:34 AM 40.3689 -82.2753 226° Southwest 383 441 11,100 -1,623 Descending Indianapolis Center
Fri 11:59:16 AM 40.3183 -82.3489 228° Southwest 374 430 10,100 -528 Descending Indianapolis Center
Fri 12:00:39 PM 40.2322 -82.4692 227° Southwest 366 421 10,000 -49 Descending Indianapolis Center
Fri 12:01:18 PM 40.2014 -82.5503 244° Southwest 327 376 10,000 -1,286 Level Indianapolis Center
Fri 12:02:17 PM 40.1853 -82.6572 259° West 290 334 7,900 -1,625 Descending Indianapolis Center
Fri 12:03:42 PM 40.1686 -82.8133 262° West 302 348 6,100 -800 Descending Indianapolis Center
Fri 12:04:32 PM 40.1486 -82.8922 252° West 300 345 6,100  Level Indianapolis Center
Fri 12:05:45 PM 40.1019 -83.0081 242° Southwest 290 334 6,100 -537 Level Indianapolis Center
Fri 12:06:46 PM 40.0719 -83.1017 247° West 257 296 4,900 -1,476 Descending Indianapolis Center
Fri 12:07:51 PM 40.0672 -83.1908 266° West 261 300 3,000 -1,069 Descending Indianapolis Center
Fri 12:08:27 PM 40.0264 -83.2036 193° South 221 254 3,100 62 Climbing Indianapolis Center
Fri 12:09:28 PM 40.0125 -83.1303 104° East 223 257 3,100 -49 Level Indianapolis Center
Fri 12:10:29 PM 40.0117 -83.0536 91° East 204 235 3,000 -484 Descending Indianapolis Center
Fri 12:11:32 PM 40.0072 -82.9900 95° East 161 185 2,100 -823 Descending Indianapolis Center
Fri 12:12:33 PM 40.0039 -82.9347 94° East 147 169 1,300 -787 Descending Indianapolis Center

Login

Don't have an account? Register now (free) for customized features, flight alerts, and more!